Startpagina
METAR-TAF:

METAR-TAF

Vliegvelden :

Bückeburg, Duitsland

breedte: 52-17N, lengte: 009-05E, hoogte: 70 m

Actueel weer

Dit bericht is 13 minuten geleden gemaakt, om 18:20 UTC
Wind 5 kt uit het oosten
Temperatuur 20°C
Vochtigheid 43%
Druk 1022 hPa
Zicht 10 km of meer

METAR: ETHB 311820Z AUTO 08005KT 9999 // ////// 20/07 Q1022 ///

Tijdstip: 20:33 (18:33 UTC)


TAF: ontbreekt

Waarnemingen en weersverwachtingen van meer dan 4000 vliegvelden (METAR en TAF).

De beschikbare stations zijn de gele en rode punten op de kaart.

Ga met uw muis naar het station om de naam te zien.

Klik dan om waarnemingen en weersverwachtingen te zien.

kaart wijzigen: klik op de groene knoppen met een zwart kruis om in te zoomen, op de groene knop met een streepje om uit te zoomen of op de groene pijlen voor aangrenzende kaarten.


METAR-TAF: